Tahoua, Niger
Current Conditions -  °F | °C
As of 7:00 PM on Friday 19 Dec 2014 (Local Time) from DRRM Reporting Station
Clear Clear  
Wind Chill: 84°   Ceiling: Unl
Heat Index: 84°   Visibility: 6mi
Dew Point: 43°   Wind: 0mph
Humidity: 23%   Direction: NA
Pressure: 29.94"   Gusts: NA
Location:  14.9°N, 5.26°E
Report Text: DRRM 191800Z 00000KT CAVOK 29/06 Q1014
Loading
Personal Weather Stations






























Interactive Weather Map New forecast layout! Learn more

10-Day Weather Forecast

Advertisements
Track Severe Weather on mobile